Airfield :







YOU CAN JOIN US ON...

 
LOGIN :

Register | Disclaimer

   EN    FR    IT 

 









Legend :    VFR   Marginal VFR   IFR   Intensive IFR   Very Intensive IFR
Visi :
Ceiling :
>= 8 km
>= 3000ft
5 to 8 km
1000 to 3000 ft
1500m to 5 km
500 to 1000 ft
800 to 1500m
200 to 500 ft
< 800m
< 200 ft
Symbols :   Thunderstorms  Fog  Heavy snow  Heavy precipitations  Wind > 20 kt






- Airport Elevation : 241 ft
- IATA code : CEF


KCEF - Westover ARB/Metropolitan

CURRENT METAR :
  • 161156Z 29012KT 10SM FEW035 SCT130 BKN180 M02/M11 A3019 RMK AO2A SLP232 T10221110 11016 21023 52013

EXPIRED METARs :
  • 161056Z AUTO 28010KT 10SM OVC140 M02/M11 A3018 RMK AO2 SLP229 T10201108
  • 160956Z AUTO 29007KT 10SM SCT041 BKN150 M02/M11 A3016 RMK AO2 SLP222 T10191107

TAF TAF KCEF
Valid from the 16 at 11:00 until the 17 at 17:00 UTC


161100Z 1611/1717 30009KT 9999 SCT040 BKN150 QNH3018INS
BECMG 1614/1615 28010G15KT 9999 SCT030 BKN100 QNH3019INS
BECMG 1619/1620 VRB06KT 9999 SCT080 BKN200 QNH3010INS
BECMG 1705/1706 03006KT 1600 -SN BR SCT007 OVC015 620159 QNH3008INS
BECMG 1708/1709 04006KT 1200 -SN BR BKN006 OVC009 620069 QNH2991INS
BECMG 1714/1715 05010G15KT 3200 -SNPL BR BKN010 OVC020 620109 540159 QNH2979INS TX02/1619Z TNM04/1711Z



MET'MAP, your aeronautical weather chart ! - Copyright ORBIFLY December 2007 - Disclaimer

ORBIFLY MET'MAP TEAM :

Programming & Development : Alexandra Zaïnal
Concept & original design : Baudouin d'Aumeries
Assistance for programming : Marc-Olivier Méhu
Technical & hardware support : Manuel Goepfert

Contact : metmap@orbifly.com




SOURCES & CREDITS :

   NOAA